Time;durP1;ratioP1;P1;durP2;ratioP2;P2;SDS_P1;SDS_P2;PMS_P1;PMS_P2;Temp;Humidity;BMP_temperature;BMP_pressure;BME280_temperature;BME280_humidity;BME280_pressure;Samples;Min_cycle;Max_cycle;Signal;HPM_P1;HPM_P2
2023/12/20 00:01:42;;;;;;;13.05;10.32;;;6.00;99.90;;;;;;5039122;28;20330;-72
2023/12/20 00:04:29;;;;;;;14.32;11.20;;;6.00;99.90;;;;;;5032417;28;20207;-72
2023/12/20 00:07:14;;;;;;;13.73;11.40;;;6.00;99.90;;;;;;5031083;28;20212;-71
2023/12/20 00:10:00;;;;;;;17.40;11.40;;;5.90;99.90;;;;;;5042672;28;20741;-71
2023/12/20 00:12:46;;;;;;;13.38;10.82;;;6.00;99.90;;;;;;5032516;28;21097;-72
2023/12/20 00:15:31;;;;;;;16.33;11.30;;;5.90;99.90;;;;;;5032199;28;20209;-71
2023/12/20 00:18:17;;;;;;;14.00;11.40;;;6.00;99.90;;;;;;5041254;28;20223;-71
2023/12/20 00:21:05;;;;;;;11.90;10.18;;;6.00;99.90;;;;;;5046803;28;20529;-72
2023/12/20 00:23:50;;;;;;;12.57;10.67;;;5.90;99.90;;;;;;5020895;28;20350;-72
2023/12/20 00:26:36;;;;;;;13.07;10.50;;;5.90;99.90;;;;;;5025722;28;20492;-71
2023/12/20 00:29:22;;;;;;;12.13;9.83;;;6.00;99.90;;;;;;5042132;28;20425;-72
2023/12/20 00:32:08;;;;;;;11.35;9.10;;;6.00;99.90;;;;;;5030424;28;20450;-71
2023/12/20 00:34:53;;;;;;;12.65;10.02;;;6.00;99.90;;;;;;5030847;28;20206;-72
2023/12/20 00:37:40;;;;;;;14.40;10.87;;;6.10;99.90;;;;;;5035497;28;20207;-72
2023/12/20 00:40:26;;;;;;;11.80;9.00;;;6.10;99.90;;;;;;5031310;28;20426;-71
2023/12/20 00:43:11;;;;;;;11.48;8.90;;;6.10;99.90;;;;;;5035898;28;20623;-71
2023/12/20 00:45:59;;;;;;;12.32;9.55;;;6.10;99.90;;;;;;5045733;28;20203;-72
2023/12/20 00:48:45;;;;;;;9.77;8.77;;;6.10;99.90;;;;;;5034901;28;20691;-72
2023/12/20 00:51:31;;;;;;;9.50;8.00;;;6.00;99.90;;;;;;5024222;28;20213;-71
2023/12/20 00:54:18;;;;;;;11.00;8.77;;;6.10;99.90;;;;;;5040968;28;20796;-72
2023/12/20 00:57:03;;;;;;;12.80;9.27;;;6.10;99.90;;;;;;5037555;28;20468;-72
2023/12/20 00:59:49;;;;;;;14.13;8.80;;;6.10;99.90;;;;;;5047764;28;20466;-72
2023/12/20 01:02:35;;;;;;;10.90;8.43;;;6.10;99.90;;;;;;5043649;28;20611;-71
2023/12/20 01:05:22;;;;;;;8.60;7.63;;;6.10;99.90;;;;;;5047209;28;20595;-72
2023/12/20 01:08:08;;;;;;;10.48;7.75;;;6.10;99.90;;;;;;5043351;28;20548;-71
2023/12/20 01:10:55;;;;;;;9.55;7.68;;;6.10;99.90;;;;;;5035363;28;20202;-72
2023/12/20 01:13:41;;;;;;;8.65;7.20;;;6.10;99.90;;;;;;5021232;28;20756;-71
2023/12/20 01:16:27;;;;;;;8.70;7.15;;;6.10;99.90;;;;;;5031097;28;20571;-72
2023/12/20 01:19:13;;;;;;;8.77;7.23;;;6.20;99.90;;;;;;5034910;28;20212;-72
2023/12/20 01:21:58;;;;;;;8.98;6.78;;;6.20;99.90;;;;;;5029696;28;20837;-72
2023/12/20 01:24:44;;;;;;;11.93;6.30;;;6.10;99.90;;;;;;5037057;28;20799;-72
2023/12/20 01:27:31;;;;;;;8.05;6.80;;;6.10;99.90;;;;;;5035459;28;20210;-71
2023/12/20 01:30:17;;;;;;;7.05;5.65;;;6.10;99.90;;;;;;5032264;28;20571;-71
2023/12/20 01:33:03;;;;;;;8.17;5.93;;;6.10;99.90;;;;;;5041467;28;20224;-70
2023/12/20 01:35:48;;;;;;;6.38;5.78;;;6.10;99.90;;;;;;5035683;28;20453;-72
2023/12/20 01:38:34;;;;;;;7.18;5.50;;;6.10;99.90;;;;;;5035864;28;20581;-72
2023/12/20 01:41:20;;;;;;;7.43;4.70;;;6.00;99.90;;;;;;5037962;28;20209;-71
2023/12/20 01:44:07;;;;;;;8.63;5.72;;;6.00;99.90;;;;;;5037793;28;20233;-71
2023/12/20 01:46:53;;;;;;;6.07;5.35;;;6.00;99.90;;;;;;5042909;28;20210;-72
2023/12/20 01:49:38;;;;;;;5.97;5.07;;;6.10;99.90;;;;;;5040373;28;20209;-72
2023/12/20 01:52:24;;;;;;;4.95;4.45;;;6.00;99.90;;;;;;5041765;28;20477;-71
2023/12/20 01:55:13;;;;;;;5.88;5.03;;;6.10;99.90;;;;;;5034791;28;20283;-72
2023/12/20 01:57:59;;;;;;;7.50;5.80;;;6.10;99.90;;;;;;5039261;28;20245;-70
2023/12/20 02:00:46;;;;;;;5.80;5.00;;;6.00;99.90;;;;;;5030864;28;20429;-72
2023/12/20 02:03:32;;;;;;;5.50;4.90;;;6.00;99.90;;;;;;5030836;28;20740;-71
2023/12/20 02:06:19;;;;;;;6.53;5.03;;;6.00;99.90;;;;;;5031764;28;20335;-70
2023/12/20 02:09:04;;;;;;;6.23;5.60;;;6.00;99.90;;;;;;5037298;28;20425;-71
2023/12/20 02:11:51;;;;;;;7.28;4.90;;;6.00;99.90;;;;;;5033568;28;20443;-71
2023/12/20 02:14:36;;;;;;;7.93;5.88;;;6.10;99.90;;;;;;5032828;28;20300;-72
2023/12/20 02:17:24;;;;;;;5.45;4.63;;;6.10;99.90;;;;;;5042197;28;20226;-71
2023/12/20 02:20:10;;;;;;;6.60;4.30;;;6.10;99.90;;;;;;5039030;28;20218;-71
2023/12/20 02:22:57;;;;;;;7.30;4.47;;;6.10;99.90;;;;;;5020144;28;20551;-71
2023/12/20 02:25:43;;;;;;;5.78;5.10;;;6.10;99.90;;;;;;5042043;28;20996;-72
2023/12/20 02:28:29;;;;;;;10.57;5.57;;;6.10;99.90;;;;;;5031324;28;20205;-72
2023/12/20 02:31:14;;;;;;;6.23;4.70;;;6.10;99.90;;;;;;5050875;28;20507;-71
2023/12/20 02:34:00;;;;;;;5.45;4.55;;;6.20;99.90;;;;;;5036181;28;20473;-70
2023/12/20 02:36:46;;;;;;;4.28;3.85;;;6.20;99.90;;;;;;5031140;28;20226;-71
2023/12/20 02:39:33;;;;;;;6.18;4.57;;;6.10;99.90;;;;;;5027891;28;20204;-72
2023/12/20 02:42:19;;;;;;;4.47;4.05;;;6.20;99.90;;;;;;5041570;28;20275;-71
2023/12/20 02:45:05;;;;;;;5.50;4.35;;;6.10;99.90;;;;;;5033602;28;20234;-72
2023/12/20 02:47:51;;;;;;;6.80;4.28;;;6.20;99.90;;;;;;5040316;28;20682;-72
2023/12/20 02:50:37;;;;;;;5.73;4.60;;;6.20;99.90;;;;;;5023980;28;20213;-71
2023/12/20 02:53:23;;;;;;;5.57;4.18;;;6.20;99.90;;;;;;5032264;28;20449;-71
2023/12/20 02:56:10;;;;;;;5.97;4.55;;;6.20;99.90;;;;;;5031516;28;20205;-72
2023/12/20 02:58:55;;;;;;;6.63;4.55;;;6.20;99.90;;;;;;5031339;28;20330;-72
2023/12/20 03:01:44;;;;;;;10.55;4.78;;;6.30;99.90;;;;;;5041165;28;20210;-72
2023/12/20 03:04:30;;;;;;;4.90;4.40;;;6.20;99.90;;;;;;5027851;28;20230;-71
2023/12/20 03:07:15;;;;;;;4.60;4.10;;;6.20;99.90;;;;;;5036530;28;20430;-71
2023/12/20 03:10:01;;;;;;;7.03;4.60;;;6.10;99.90;;;;;;5034803;28;20272;-71
2023/12/20 03:12:48;;;;;;;5.35;4.78;;;6.20;99.90;;;;;;5035939;28;20493;-72
2023/12/20 03:15:33;;;;;;;5.57;4.70;;;6.20;99.90;;;;;;5043661;28;20208;-71
2023/12/20 03:18:19;;;;;;;5.05;4.45;;;6.20;99.90;;;;;;5045875;28;20292;-71
2023/12/20 03:21:05;;;;;;;6.88;4.65;;;6.20;99.90;;;;;;5040402;28;20206;-72
2023/12/20 03:23:51;;;;;;;5.72;4.07;;;6.20;99.90;;;;;;5040787;28;20252;-72
2023/12/20 03:26:36;;;;;;;5.20;3.95;;;6.10;99.90;;;;;;5039115;28;20203;-71
2023/12/20 03:29:23;;;;;;;4.75;4.15;;;6.10;99.90;;;;;;5041783;28;20696;-72
2023/12/20 03:32:09;;;;;;;4.93;4.22;;;6.10;99.90;;;;;;5035387;28;20262;-72
2023/12/20 03:34:55;;;;;;;6.10;4.63;;;6.10;99.90;;;;;;5043651;28;20199;-72
2023/12/20 03:37:40;;;;;;;8.75;5.35;;;6.10;99.90;;;;;;5044392;28;20424;-72
2023/12/20 03:40:26;;;;;;;5.95;4.53;;;6.10;99.90;;;;;;5042747;28;20213;-72
2023/12/20 03:43:12;;;;;;;7.40;5.27;;;6.10;99.90;;;;;;5043225;28;20249;-72
2023/12/20 03:45:59;;;;;;;10.68;6.25;;;6.10;99.90;;;;;;5046826;28;20953;-72
2023/12/20 03:48:45;;;;;;;9.73;6.13;;;6.00;99.90;;;;;;5047084;28;20688;-72
2023/12/20 03:51:30;;;;;;;7.78;5.30;;;6.00;99.90;;;;;;5035549;28;20279;-72
2023/12/20 03:54:16;;;;;;;6.20;4.50;;;6.00;99.90;;;;;;5045516;28;20205;-71
2023/12/20 03:57:02;;;;;;;7.20;5.03;;;6.00;99.90;;;;;;5048079;28;20210;-72
2023/12/20 03:59:48;;;;;;;8.30;4.90;;;6.00;99.90;;;;;;5042642;28;20403;-72
2023/12/20 04:02:34;;;;;;;5.53;4.47;;;6.10;99.90;;;;;;5032706;28;20427;-71
2023/12/20 04:05:20;;;;;;;5.10;3.80;;;6.10;99.90;;;;;;5041094;28;20468;-71
2023/12/20 04:08:06;;;;;;;5.57;4.20;;;6.10;99.90;;;;;;5042539;28;20568;-72
2023/12/20 04:10:52;;;;;;;6.43;5.00;;;6.10;99.90;;;;;;5041378;28;20567;-72
2023/12/20 04:13:37;;;;;;;5.00;4.50;;;6.10;99.90;;;;;;5039699;28;20487;-72
2023/12/20 04:16:23;;;;;;;5.73;4.50;;;6.10;99.90;;;;;;5033365;28;20701;-72
2023/12/20 04:19:10;;;;;;;5.50;4.20;;;6.20;99.90;;;;;;5042659;28;20920;-69
2023/12/20 04:21:55;;;;;;;4.40;3.80;;;6.20;99.90;;;;;;5033455;28;20470;-71
2023/12/20 04:24:42;;;;;;;5.37;3.30;;;6.20;99.90;;;;;;5036901;28;20837;-72
2023/12/20 04:27:27;;;;;;;10.63;4.28;;;6.20;99.90;;;;;;5035405;28;20564;-71
2023/12/20 04:30:13;;;;;;;4.40;3.70;;;6.10;99.90;;;;;;5047059;28;20566;-71
2023/12/20 04:32:59;;;;;;;4.15;3.60;;;6.10;99.90;;;;;;5039363;28;20458;-72
2023/12/20 04:35:46;;;;;;;5.53;3.85;;;6.20;99.90;;;;;;5044019;28;20198;-72
2023/12/20 04:38:32;;;;;;;4.63;3.60;;;6.20;99.90;;;;;;5033246;28;20257;-72
2023/12/20 04:41:18;;;;;;;6.45;4.13;;;6.20;99.90;;;;;;5039650;28;20554;-71
2023/12/20 04:44:04;;;;;;;4.30;3.43;;;6.10;99.90;;;;;;5042422;28;20231;-71
2023/12/20 04:46:49;;;;;;;4.43;3.95;;;6.10;99.90;;;;;;5045005;28;20434;-71
2023/12/20 04:49:35;;;;;;;5.40;4.05;;;6.20;99.90;;;;;;5046009;28;20253;-69
2023/12/20 04:52:22;;;;;;;4.73;3.70;;;6.20;99.90;;;;;;5043425;28;20325;-72
2023/12/20 04:55:08;;;;;;;5.72;4.70;;;6.20;99.90;;;;;;5037594;28;20422;-72
2023/12/20 04:57:54;;;;;;;6.63;4.93;;;6.20;99.90;;;;;;5049095;28;20261;-71
2023/12/20 05:00:40;;;;;;;5.17;4.40;;;6.20;99.90;;;;;;5048912;28;20205;-70
2023/12/20 05:03:25;;;;;;;6.43;5.25;;;6.20;99.90;;;;;;5044616;28;20484;-72
2023/12/20 05:06:11;;;;;;;7.10;4.97;;;6.10;99.90;;;;;;5035682;28;20206;-72
2023/12/20 05:08:58;;;;;;;6.23;5.30;;;6.10;99.90;;;;;;5030378;28;20218;-71
2023/12/20 05:11:43;;;;;;;6.37;5.77;;;6.10;99.90;;;;;;5030381;28;20476;-71
2023/12/20 05:14:29;;;;;;;6.77;5.43;;;6.10;99.90;;;;;;5034630;28;20433;-72
2023/12/20 05:17:15;;;;;;;5.38;4.88;;;6.10;99.90;;;;;;5041023;28;20422;-72
2023/12/20 05:20:00;;;;;;;7.57;5.33;;;6.20;99.90;;;;;;5037539;28;20200;-71
2023/12/20 05:22:47;;;;;;;7.47;6.47;;;6.20;99.90;;;;;;5039245;28;20448;-71
2023/12/20 05:25:33;;;;;;;6.93;5.40;;;6.30;99.90;;;;;;5038098;28;20229;-71
2023/12/20 05:28:19;;;;;;;9.93;6.82;;;6.20;99.90;;;;;;5043769;28;20214;-72
2023/12/20 05:31:05;;;;;;;6.50;5.70;;;6.20;99.90;;;;;;5040840;28;20203;-71
2023/12/20 05:33:50;;;;;;;6.88;6.03;;;6.20;99.90;;;;;;5041031;28;20744;-72
2023/12/20 05:36:37;;;;;;;7.43;6.35;;;6.20;99.90;;;;;;5042794;28;20198;-72
2023/12/20 05:39:22;;;;;;;8.97;8.07;;;6.20;99.90;;;;;;5048990;28;20725;-72
2023/12/20 05:42:09;;;;;;;8.00;7.20;;;6.10;99.90;;;;;;5037654;28;20444;-71
2023/12/20 05:44:55;;;;;;;11.80;7.20;;;6.10;99.90;;;;;;5036299;28;20551;-71
2023/12/20 05:47:40;;;;;;;8.87;7.57;;;6.10;99.90;;;;;;5037260;28;20542;-72
2023/12/20 05:50:26;;;;;;;8.50;6.30;;;6.10;99.90;;;;;;5047236;28;20848;-72
2023/12/20 05:53:12;;;;;;;9.10;6.67;;;6.20;99.90;;;;;;5036711;28;20803;-72
2023/12/20 05:55:57;;;;;;;7.90;7.07;;;6.20;99.90;;;;;;5046325;28;20421;-71
2023/12/20 05:58:44;;;;;;;9.70;6.77;;;6.20;99.90;;;;;;5037883;28;20433;-71
2023/12/20 06:01:30;;;;;;;8.18;7.35;;;6.20;99.90;;;;;;5043441;28;20903;-72
2023/12/20 06:04:15;;;;;;;7.93;7.18;;;6.20;99.90;;;;;;5029419;28;20227;-71
2023/12/20 06:07:01;;;;;;;10.18;8.00;;;6.20;99.90;;;;;;5035020;28;20433;-72
2023/12/20 06:09:47;;;;;;;8.65;7.32;;;6.20;99.90;;;;;;5044880;28;20203;-72
2023/12/20 06:12:35;;;;;;;13.37;7.40;;;6.20;99.90;;;;;;5036464;28;20234;-72
2023/12/20 06:15:23;;;;;;;15.88;10.23;;;6.20;99.90;;;;;;5043298;28;20460;-71
2023/12/20 06:18:08;;;;;;;10.27;8.30;;;6.20;99.90;;;;;;5041910;28;20559;-72
2023/12/20 06:20:54;;;;;;;10.80;8.73;;;6.10;99.90;;;;;;5027845;28;20292;-72
2023/12/20 06:23:40;;;;;;;30.85;20.35;;;6.20;99.90;;;;;;5046241;28;20598;-73
2023/12/20 06:26:25;;;;;;;20.20;13.83;;;6.20;99.90;;;;;;5043813;28;20207;-74
2023/12/20 06:29:11;;;;;;;13.23;8.70;;;6.10;99.90;;;;;;5042766;28;20422;-73
2023/12/20 06:31:58;;;;;;;9.70;7.57;;;6.10;99.90;;;;;;5036693;28;20437;-73
2023/12/20 06:34:44;;;;;;;14.67;10.73;;;6.10;99.90;;;;;;5041958;28;20275;-72
2023/12/20 06:37:29;;;;;;;9.05;8.13;;;6.10;99.90;;;;;;5031500;28;20557;-74
2023/12/20 06:40:15;;;;;;;11.98;8.30;;;6.10;99.90;;;;;;5046002;28;20206;-74
2023/12/20 06:43:01;;;;;;;9.90;7.97;;;6.10;99.90;;;;;;5043467;28;20590;-73
2023/12/20 06:45:47;;;;;;;12.37;10.13;;;6.10;99.90;;;;;;5040699;28;20226;-72
2023/12/20 06:48:34;;;;;;;12.30;9.30;;;6.00;99.90;;;;;;5043960;28;20438;-73
2023/12/20 06:51:20;;;;;;;13.70;10.83;;;6.20;99.90;;;;;;5042394;28;20516;-74
2023/12/20 06:54:06;;;;;;;15.27;9.80;;;6.10;99.90;;;;;;5024948;28;20791;-73
2023/12/20 06:56:52;;;;;;;9.98;8.82;;;6.10;99.90;;;;;;5046744;28;20579;-74
2023/12/20 06:59:40;;;;;;;9.30;8.30;;;6.10;99.90;;;;;;5035009;28;20632;-74
2023/12/20 07:02:29;;;;;;;10.40;7.60;;;6.10;99.90;;;;;;5043818;28;20452;-73
2023/12/20 07:05:19;;;;;;;9.00;7.80;;;6.00;99.90;;;;;;5042298;28;20476;-73
2023/12/20 07:08:06;;;;;;;9.10;7.95;;;5.90;99.90;;;;;;5043916;28;20571;-74
2023/12/20 07:10:51;;;;;;;10.88;8.18;;;5.80;99.90;;;;;;5032151;28;20343;-73
2023/12/20 07:13:37;;;;;;;9.60;8.55;;;5.60;99.90;;;;;;5039816;28;20220;-73
2023/12/20 07:16:23;;;;;;;9.80;7.10;;;5.60;99.90;;;;;;5048147;28;20201;-72
2023/12/20 07:19:08;;;;;;;9.52;7.18;;;5.40;99.90;;;;;;5043013;28;20428;-73
2023/12/20 07:21:56;;;;;;;9.23;7.40;;;5.40;99.90;;;;;;5040858;28;20226;-74
2023/12/20 07:24:42;;;;;;;9.15;7.03;;;5.30;99.90;;;;;;5036917;28;20234;-73
2023/12/20 07:27:27;;;;;;;7.47;6.50;;;5.30;99.90;;;;;;5041712;28;20203;-72
2023/12/20 07:30:13;;;;;;;7.70;6.78;;;5.10;99.90;;;;;;5045558;28;20553;-73
2023/12/20 07:32:59;;;;;;;7.15;6.45;;;5.00;99.90;;;;;;5040362;28;20233;-73
2023/12/20 07:35:45;;;;;;;8.70;7.05;;;4.90;99.90;;;;;;5044276;28;20255;-69
2023/12/20 07:38:32;;;;;;;7.68;6.80;;;4.90;99.90;;;;;;5038809;28;20206;-73
2023/12/20 07:41:18;;;;;;;8.23;6.93;;;4.90;99.90;;;;;;5047825;28;20198;-74
2023/12/20 07:44:06;;;;;;;8.18;6.45;;;4.80;99.90;;;;;;5043444;28;20228;-73
2023/12/20 07:46:52;;;;;;;8.35;6.75;;;4.70;99.90;;;;;;5039390;28;20218;-71
2023/12/20 07:49:37;;;;;;;11.35;7.28;;;4.60;99.90;;;;;;5035861;28;20287;-74
2023/12/20 07:52:24;;;;;;;8.82;6.80;;;4.60;99.90;;;;;;5038387;28;20299;-73
2023/12/20 07:55:11;;;;;;;9.63;7.40;;;4.60;99.90;;;;;;5046239;28;20316;-74
2023/12/20 07:57:57;;;;;;;8.13;6.53;;;4.60;99.90;;;;;;5043987;28;20207;-73
2023/12/20 08:00:42;;;;;;;7.45;6.30;;;4.60;99.90;;;;;;5044173;28;20196;-73
2023/12/20 08:03:28;;;;;;;8.25;6.22;;;4.60;99.90;;;;;;5040133;28;20324;-73
2023/12/20 08:06:13;;;;;;;8.10;6.65;;;4.60;99.90;;;;;;5047472;28;20222;-73
2023/12/20 08:08:59;;;;;;;15.15;7.32;;;4.60;99.90;;;;;;5046358;28;20323;-72
2023/12/20 08:11:47;;;;;;;9.90;7.10;;;4.70;99.90;;;;;;5048349;28;20201;-73
2023/12/20 08:14:33;;;;;;;13.43;6.68;;;4.80;99.90;;;;;;5038161;28;20696;-72
2023/12/20 08:17:19;;;;;;;7.85;6.40;;;4.90;99.90;;;;;;5047293;28;20198;-71
2023/12/20 08:20:05;;;;;;;11.15;6.63;;;4.90;99.90;;;;;;5038724;28;20209;-70
2023/12/20 08:22:51;;;;;;;14.95;6.85;;;5.00;99.90;;;;;;5046582;28;20229;-72
2023/12/20 08:25:36;;;;;;;11.35;6.00;;;5.10;99.90;;;;;;5046497;28;20315;-72
2023/12/20 08:28:23;;;;;;;8.38;6.07;;;5.20;99.90;;;;;;5046725;28;20205;-72
2023/12/20 08:31:15;;;;;;;9.02;6.53;;;5.20;99.90;;;;;;5046678;28;20245;-71
2023/12/20 08:34:00;;;;;;;10.52;7.40;;;5.30;99.90;;;;;;5047081;28;20240;-73
2023/12/20 08:36:46;;;;;;;6.63;5.93;;;5.40;99.90;;;;;;5036536;28;20277;-73
2023/12/20 08:39:33;;;;;;;8.97;6.80;;;5.40;99.90;;;;;;5049075;28;20226;-73
2023/12/20 08:42:19;;;;;;;8.48;5.32;;;5.40;99.90;;;;;;5051446;28;20889;-72
2023/12/20 08:45:07;;;;;;;9.70;6.05;;;5.40;99.90;;;;;;5049251;28;20226;-73
2023/12/20 08:47:52;;;;;;;9.90;6.35;;;5.50;99.90;;;;;;5046280;28;20208;-73
2023/12/20 08:50:38;;;;;;;10.10;5.85;;;5.50;99.90;;;;;;5036163;28;20208;-73
2023/12/20 08:53:25;;;;;;;9.90;5.10;;;5.50;99.90;;;;;;5031099;28;20220;-73
2023/12/20 08:56:10;;;;;;;6.57;5.05;;;5.50;99.90;;;;;;5045777;28;20215;-73
2023/12/20 08:58:56;;;;;;;8.18;5.40;;;5.50;99.90;;;;;;5049445;28;20300;-73
2023/12/20 09:01:43;;;;;;;12.13;5.28;;;5.60;99.90;;;;;;5044179;28;20253;-72
2023/12/20 09:04:29;;;;;;;9.52;5.32;;;5.70;99.90;;;;;;5050646;28;20277;-73
2023/12/20 09:07:24;;;;;;;12.68;6.38;;;5.80;99.90;;;;;;5046299;28;20215;-73
2023/12/20 09:10:09;;;;;;;8.85;5.93;;;5.90;99.90;;;;;;5033134;28;20231;-73
2023/12/20 09:12:56;;;;;;;16.73;6.10;;;5.90;99.90;;;;;;5050433;28;20720;-74
2023/12/20 09:15:42;;;;;;;10.18;6.22;;;6.00;99.90;;;;;;5044302;28;20202;-73
2023/12/20 09:18:29;;;;;;;8.60;5.97;;;6.00;99.90;;;;;;5049528;28;20209;-71
2023/12/20 09:21:14;;;;;;;10.98;4.60;;;6.10;99.90;;;;;;5041661;28;20972;-74
2023/12/20 09:24:00;;;;;;;9.07;5.17;;;6.20;99.90;;;;;;5048370;28;20238;-72
2023/12/20 09:26:46;;;;;;;10.60;4.57;;;6.30;99.90;;;;;;5039939;28;21008;-73
2023/12/20 09:29:31;;;;;;;11.13;4.80;;;6.40;99.90;;;;;;5036839;28;20198;-74
2023/12/20 09:32:17;;;;;;;12.47;7.40;;;6.40;99.90;;;;;;5048495;28;20444;-73
2023/12/20 09:35:05;;;;;;;11.60;4.83;;;6.50;99.90;;;;;;5049956;28;20407;-73
2023/12/20 09:37:51;;;;;;;6.05;4.82;;;6.50;99.90;;;;;;5048949;28;20419;-74
2023/12/20 09:40:42;;;;;;;10.33;4.20;;;6.50;99.90;;;;;;5050653;28;20244;-73
2023/12/20 09:43:29;;;;;;;6.00;4.10;;;6.50;99.90;;;;;;5035842;28;20808;-74
2023/12/20 09:46:20;;;;;;;10.00;4.05;;;6.60;99.90;;;;;;5048572;28;20456;-73
2023/12/20 09:49:06;;;;;;;7.63;4.43;;;6.70;99.90;;;;;;5048891;28;20213;-74
2023/12/20 09:51:56;;;;;;;6.30;4.00;;;6.70;99.90;;;;;;5038913;28;20439;-74
2023/12/20 09:54:43;;;;;;;11.70;4.40;;;6.70;99.90;;;;;;5045456;28;20426;-74
2023/12/20 09:57:29;;;;;;;9.87;4.27;;;6.70;99.90;;;;;;5049131;28;20437;-73
2023/12/20 10:00:17;;;;;;;6.75;4.05;;;6.70;99.90;;;;;;5034855;28;20452;-72
2023/12/20 10:03:02;;;;;;;13.03;4.37;;;6.70;99.90;;;;;;5045030;28;20280;-74
2023/12/20 10:05:50;;;;;;;11.83;4.90;;;6.70;99.90;;;;;;5049380;28;20477;-73
2023/12/20 10:08:37;;;;;;;7.93;4.60;;;6.70;99.90;;;;;;5049224;28;20928;-74
2023/12/20 10:11:22;;;;;;;8.47;4.47;;;6.60;99.90;;;;;;5049174;28;20516;-73
2023/12/20 10:14:08;;;;;;;6.80;4.20;;;6.60;99.90;;;;;;5041911;28;20455;-72
2023/12/20 10:16:55;;;;;;;12.07;4.40;;;6.60;99.90;;;;;;5050240;28;20207;-73
2023/12/20 10:19:40;;;;;;;9.93;4.20;;;6.60;99.90;;;;;;5039846;28;20559;-73
2023/12/20 10:22:28;;;;;;;7.10;3.70;;;6.60;99.90;;;;;;5044055;28;20435;-73
2023/12/20 10:25:15;;;;;;;9.33;3.73;;;6.60;99.90;;;;;;5048156;28;21046;-72
2023/12/20 10:28:11;;;;;;;11.13;4.18;;;6.60;99.90;;;;;;5048786;28;20449;-73
2023/12/20 10:30:57;;;;;;;9.18;4.28;;;6.60;99.90;;;;;;5050391;28;20209;-70
2023/12/20 10:33:43;;;;;;;8.67;4.00;;;6.70;99.90;;;;;;5050233;28;20227;-73
2023/12/20 10:36:30;;;;;;;7.07;4.18;;;6.70;99.90;;;;;;5036175;28;20429;-72
2023/12/20 10:39:17;;;;;;;8.65;4.07;;;6.70;99.90;;;;;;5049286;28;20215;-72
2023/12/20 10:42:05;;;;;;;17.00;6.70;;;6.70;99.90;;;;;;5046509;28;20257;-73
2023/12/20 10:44:51;;;;;;;13.07;4.40;;;6.70;99.90;;;;;;5049943;28;20614;-72
2023/12/20 10:47:38;;;;;;;8.20;4.53;;;6.70;99.90;;;;;;5049975;28;20427;-73
2023/12/20 10:50:24;;;;;;;7.60;4.07;;;6.80;99.90;;;;;;5048652;28;20795;-72
2023/12/20 10:53:11;;;;;;;9.23;4.37;;;6.80;99.90;;;;;;5032252;28;20453;-73
2023/12/20 10:56:00;;;;;;;12.35;4.15;;;6.80;99.90;;;;;;5050104;28;20463;-73
2023/12/20 10:58:49;;;;;;;10.53;3.67;;;6.80;99.90;;;;;;5026642;28;20244;-73
2023/12/20 11:01:38;;;;;;;12.63;4.00;;;6.80;99.90;;;;;;5044427;28;20563;-73
2023/12/20 11:04:29;;;;;;;13.47;3.47;;;6.80;99.90;;;;;;5040408;28;20474;-73
2023/12/20 11:07:22;;;;;;;8.20;3.50;;;6.80;99.90;;;;;;5030451;28;20485;-74
2023/12/20 11:10:17;;;;;;;12.88;4.57;;;6.80;99.90;;;;;;5027983;28;20793;-74
2023/12/20 11:13:10;;;;;;;10.37;3.27;;;6.80;99.90;;;;;;5029732;28;20695;-74
2023/12/20 11:15:57;;;;;;;5.80;3.00;;;6.90;99.90;;;;;;5025156;28;20446;-74
2023/12/20 11:18:42;;;;;;;12.87;4.57;;;6.90;99.90;;;;;;5027756;28;20457;-75
2023/12/20 11:21:31;;;;;;;8.67;3.07;;;6.90;99.90;;;;;;5024580;28;20497;-74
2023/12/20 11:24:17;;;;;;;18.23;3.97;;;6.90;99.90;;;;;;5029244;28;20464;-74
2023/12/20 11:27:02;;;;;;;9.80;3.60;;;6.90;99.90;;;;;;5028835;28;20634;-75
2023/12/20 11:29:52;;;;;;;11.13;3.13;;;7.00;99.90;;;;;;5028111;28;20597;-74
2023/12/20 11:32:42;;;;;;;12.10;3.37;;;7.00;99.90;;;;;;5028941;28;20460;-74
2023/12/20 11:35:28;;;;;;;24.08;3.30;;;7.00;99.90;;;;;;5029011;28;20826;-74
2023/12/20 11:38:15;;;;;;;14.37;3.43;;;7.00;99.90;;;;;;5034446;28;20708;-73
2023/12/20 11:41:03;;;;;;;16.90;4.37;;;7.00;99.90;;;;;;5027777;28;20449;-72
2023/12/20 11:43:49;;;;;;;6.60;2.70;;;7.00;99.90;;;;;;5026107;28;20445;-74
2023/12/20 11:46:34;;;;;;;8.83;3.00;;;7.00;99.90;;;;;;5035838;28;20480;-73
2023/12/20 11:49:24;;;;;;;6.57;2.50;;;7.00;99.90;;;;;;5031639;28;20826;-74
2023/12/20 11:52:12;;;;;;;6.70;2.83;;;6.90;99.90;;;;;;5034880;28;20223;-72
2023/12/20 11:54:58;;;;;;;5.55;2.75;;;6.80;99.90;;;;;;5031810;28;20936;-74
2023/12/20 11:57:44;;;;;;;6.35;3.15;;;6.80;99.90;;;;;;5037575;28;20197;-73
2023/12/20 12:00:30;;;;;;;10.17;2.67;;;6.80;99.90;;;;;;5026009;28;20202;-72
2023/12/20 12:03:16;;;;;;;7.77;2.70;;;6.90;99.90;;;;;;5027187;28;20454;-73
2023/12/20 12:06:04;;;;;;;9.57;4.33;;;6.90;99.90;;;;;;5024745;28;20840;-73
2023/12/20 12:08:50;;;;;;;6.93;2.80;;;6.90;99.90;;;;;;5032137;28;20454;-74
2023/12/20 12:11:36;;;;;;;10.07;2.93;;;6.90;99.90;;;;;;5020992;28;20449;-71
2023/12/20 12:14:22;;;;;;;13.93;3.30;;;6.90;99.90;;;;;;5018125;28;20433;-71
2023/12/20 12:17:12;;;;;;;7.75;2.72;;;6.90;99.90;;;;;;5032630;28;20434;-74
2023/12/20 12:20:05;;;;;;;7.57;3.03;;;6.90;99.90;;;;;;5050370;28;20210;-73
2023/12/20 12:23:00;;;;;;;5.80;3.67;;;6.90;99.90;;;;;;5045851;28;20747;-71
2023/12/20 12:25:46;;;;;;;13.80;3.27;;;6.90;99.90;;;;;;5029583;28;20524;-71
2023/12/20 12:28:32;;;;;;;11.90;3.30;;;6.80;99.90;;;;;;5020886;28;20431;-71
2023/12/20 12:31:18;;;;;;;7.40;3.33;;;6.80;99.90;;;;;;5029756;28;20211;-71
2023/12/20 12:34:04;;;;;;;12.80;3.83;;;6.90;99.90;;;;;;5036816;28;20454;-71
2023/12/20 12:36:49;;;;;;;6.15;2.63;;;6.80;99.90;;;;;;5039699;28;20492;-71
2023/12/20 12:39:36;;;;;;;12.33;3.53;;;6.90;99.90;;;;;;5038151;28;20606;-71
2023/12/20 12:42:28;;;;;;;6.93;3.80;;;6.90;99.90;;;;;;5045705;28;20507;-71
2023/12/20 12:45:15;;;;;;;11.13;3.80;;;6.90;99.90;;;;;;5032495;28;20457;-71
2023/12/20 12:48:01;;;;;;;15.53;3.17;;;6.90;99.90;;;;;;5024504;28;20423;-72
2023/12/20 12:50:47;;;;;;;8.13;3.10;;;6.90;99.90;;;;;;5032799;28;20433;-71
2023/12/20 12:53:32;;;;;;;8.43;4.00;;;7.00;99.90;;;;;;5027661;28;20310;-71
2023/12/20 12:56:19;;;;;;;8.60;3.40;;;7.00;99.90;;;;;;5037081;28;20837;-71
2023/12/20 12:59:05;;;;;;;9.00;4.20;;;7.00;99.90;;;;;;5038246;28;20626;-71
2023/12/20 13:01:51;;;;;;;15.60;4.00;;;6.90;99.90;;;;;;5043423;28;20520;-71
2023/12/20 13:04:36;;;;;;;9.80;4.00;;;7.00;99.90;;;;;;5030672;28;20431;-71
2023/12/20 13:07:22;;;;;;;9.90;4.60;;;6.90;99.90;;;;;;5027110;28;20482;-71
2023/12/20 13:10:08;;;;;;;13.83;4.37;;;6.90;99.90;;;;;;5035436;28;20433;-71
2023/12/20 13:12:55;;;;;;;6.67;3.23;;;6.90;99.90;;;;;;5037585;28;21009;-71
2023/12/20 13:15:41;;;;;;;9.73;3.67;;;6.90;99.90;;;;;;5041194;28;20723;-71
2023/12/20 13:18:26;;;;;;;12.95;3.90;;;6.90;99.90;;;;;;5049729;28;20790;-71
2023/12/20 13:21:12;;;;;;;9.87;4.10;;;6.90;99.90;;;;;;5034760;28;20211;-71
2023/12/20 13:23:58;;;;;;;12.47;3.47;;;6.90;99.90;;;;;;5034562;28;20465;-71
2023/12/20 13:26:43;;;;;;;7.73;3.90;;;6.90;99.90;;;;;;5022325;28;20620;-71
2023/12/20 13:29:31;;;;;;;9.32;3.60;;;6.90;99.90;;;;;;5031146;28;20436;-71
2023/12/20 13:32:16;;;;;;;15.13;3.70;;;6.90;99.90;;;;;;5051636;28;20232;-71
2023/12/20 13:35:01;;;;;;;9.40;3.83;;;6.90;99.90;;;;;;5038144;28;20446;-72
2023/12/20 13:37:47;;;;;;;13.17;3.83;;;6.90;99.90;;;;;;5042027;28;20547;-71
2023/12/20 13:40:33;;;;;;;10.93;3.40;;;6.90;99.90;;;;;;5028017;28;20477;-71
2023/12/20 13:43:20;;;;;;;17.87;4.33;;;6.90;99.90;;;;;;5042318;28;20327;-71
2023/12/20 13:46:07;;;;;;;13.57;3.70;;;6.90;99.90;;;;;;5051511;28;20429;-72
2023/12/20 13:48:53;;;;;;;9.93;4.20;;;6.80;99.90;;;;;;5026406;28;20445;-71
2023/12/20 13:51:38;;;;;;;9.73;3.70;;;6.80;99.90;;;;;;5027880;28;20487;-72
2023/12/20 13:54:24;;;;;;;6.95;3.47;;;6.90;99.90;;;;;;5035687;28;20452;-72
2023/12/20 13:57:10;;;;;;;10.97;4.10;;;6.90;99.90;;;;;;5029466;28;20254;-72
2023/12/20 13:59:56;;;;;;;10.50;4.20;;;7.00;99.90;;;;;;5028854;28;20437;-72
2023/12/20 14:02:43;;;;;;;10.38;3.10;;;7.00;99.90;;;;;;5030223;28;20258;-71
2023/12/20 14:05:29;;;;;;;13.10;3.78;;;7.00;99.90;;;;;;5027275;28;20284;-71
2023/12/20 14:08:15;;;;;;;15.68;4.13;;;7.00;99.90;;;;;;5028993;28;20313;-72
2023/12/20 14:11:01;;;;;;;8.50;3.53;;;7.00;99.90;;;;;;5031825;28;20229;-72
2023/12/20 14:13:47;;;;;;;6.82;4.45;;;7.00;99.90;;;;;;5039802;28;20219;-71
2023/12/20 14:16:33;;;;;;;9.50;4.03;;;6.90;99.90;;;;;;5028766;28;20683;-71
2023/12/20 14:19:19;;;;;;;12.07;4.03;;;6.90;99.90;;;;;;5035569;28;20745;-70
2023/12/20 14:22:06;;;;;;;9.50;4.70;;;6.80;99.90;;;;;;5032625;28;20432;-71
2023/12/20 14:24:52;;;;;;;14.77;4.13;;;6.80;99.90;;;;;;5036818;28;20219;-71
2023/12/20 14:27:37;;;;;;;8.48;4.38;;;6.90;99.90;;;;;;5018336;28;20589;-71
2023/12/20 14:30:23;;;;;;;10.93;3.60;;;6.90;99.90;;;;;;5026601;28;20214;-71
2023/12/20 14:33:08;;;;;;;12.15;4.65;;;6.90;99.90;;;;;;5024669;28;20229;-71